createdAt,value
2023-05-10T00:00:08.838Z,25.40
2023-05-10T00:01:08.837Z,23.60
2023-05-10T00:02:08.844Z,23.90
2023-05-10T00:03:08.895Z,22.30
2023-05-10T00:04:08.830Z,24.90
2023-05-10T00:05:08.818Z,20.70
2023-05-10T00:06:08.789Z,21.20
2023-05-10T00:07:08.848Z,20.60
2023-05-10T00:08:08.820Z,21.80
2023-05-10T00:09:08.800Z,20.50
2023-05-10T00:10:08.771Z,23.30
2023-05-10T00:11:08.768Z,23.40
2023-05-10T00:12:08.783Z,22.50
2023-05-10T00:13:08.788Z,24.20
2023-05-10T00:14:08.748Z,22.00
2023-05-10T00:15:08.757Z,21.20
2023-05-10T00:16:08.799Z,20.90
2023-05-10T00:17:08.714Z,23.30
2023-05-10T00:18:08.798Z,21.00
2023-05-10T00:19:08.717Z,19.50
2023-05-10T00:20:09.011Z,19.70
2023-05-10T00:21:08.680Z,21.70
2023-05-10T00:22:08.692Z,20.40
2023-05-10T00:23:08.688Z,22.20
2023-05-10T00:24:08.681Z,21.50
2023-05-10T00:25:08.713Z,21.40
2023-05-10T00:26:08.661Z,20.40
2023-05-10T00:27:08.628Z,20.80
2023-05-10T00:28:08.672Z,19.80
2023-05-10T00:29:08.650Z,19.80
2023-05-10T00:30:08.642Z,20.90
2023-05-10T00:31:08.672Z,20.20
2023-05-10T00:32:08.642Z,18.60
2023-05-10T00:33:08.627Z,18.70
2023-05-10T00:34:08.593Z,17.70
2023-05-10T00:35:08.595Z,18.30
2023-05-10T00:36:08.587Z,17.10
2023-05-10T00:37:08.566Z,18.10
2023-05-10T00:38:08.563Z,18.40
2023-05-10T00:39:08.548Z,15.70
2023-05-10T00:40:08.555Z,16.10
2023-05-10T00:41:08.567Z,15.30
2023-05-10T00:42:08.526Z,15.30
2023-05-10T00:43:08.530Z,14.20
2023-05-10T00:44:08.534Z,14.80
2023-05-10T00:45:08.530Z,14.50
2023-05-10T00:46:08.559Z,13.60
2023-05-10T00:47:08.512Z,11.50
2023-05-10T00:49:08.488Z,12.20
2023-05-10T00:50:08.524Z,11.90
2023-05-10T00:51:08.478Z,13.30
2023-05-10T00:52:08.456Z,8.70
2023-05-10T00:53:08.470Z,9.10
2023-05-10T00:54:08.458Z,10.00
2023-05-10T00:55:08.472Z,9.70
2023-05-10T00:56:08.450Z,9.30
2023-05-10T00:57:08.429Z,9.50
2023-05-10T00:58:08.421Z,8.40
2023-05-10T00:59:08.443Z,7.50
2023-05-10T01:00:08.417Z,8.90
2023-05-10T01:01:08.428Z,7.80
2023-05-10T01:02:08.417Z,7.10
2023-05-10T01:03:08.513Z,8.30
2023-05-10T01:04:08.409Z,8.30
2023-05-10T01:05:08.427Z,7.70
2023-05-10T01:06:08.373Z,7.60
2023-05-10T01:07:08.373Z,10.60
2023-05-10T01:08:08.373Z,7.40
2023-05-10T01:09:08.352Z,11.10
2023-05-10T01:10:08.378Z,8.10
2023-05-10T01:11:08.358Z,8.10
2023-05-10T01:12:08.506Z,8.80
2023-05-10T01:13:08.363Z,7.60
2023-05-10T01:14:08.363Z,10.20
2023-05-10T01:15:08.312Z,7.50
2023-05-10T01:16:08.367Z,9.00
2023-05-10T01:17:08.367Z,8.20
2023-05-10T01:18:08.296Z,11.30
2023-05-10T01:19:08.277Z,7.60
2023-05-10T01:20:08.274Z,7.20
2023-05-10T01:21:08.270Z,9.80
2023-05-10T01:22:08.287Z,8.50
2023-05-10T01:23:08.268Z,7.20
2023-05-10T01:24:08.244Z,7.70
2023-05-10T01:25:08.241Z,8.90
2023-05-10T01:26:08.225Z,13.00
2023-05-10T01:27:08.234Z,7.70
2023-05-10T01:28:08.228Z,9.20
2023-05-10T01:29:08.206Z,7.30
2023-05-10T01:30:21.746Z,7.20
2023-05-10T01:31:10.202Z,7.10
2023-05-10T01:32:08.211Z,8.00
2023-05-10T01:33:08.228Z,8.60
2023-05-10T01:34:08.182Z,7.00
2023-05-10T01:35:08.156Z,6.70
2023-05-10T01:36:08.179Z,7.00
2023-05-10T01:37:08.193Z,6.70
2023-05-10T01:38:08.138Z,5.50
2023-05-10T01:39:08.132Z,11.50
2023-05-10T01:40:08.131Z,10.10
2023-05-10T01:41:08.130Z,4.60
2023-05-10T01:42:08.115Z,4.00
2023-05-10T01:43:08.102Z,13.30
2023-05-10T01:44:08.113Z,6.30
2023-05-10T01:45:08.085Z,11.20
2023-05-10T01:46:08.133Z,7.50
2023-05-10T01:47:08.072Z,3.90
2023-05-10T01:48:08.124Z,3.80
2023-05-10T01:49:08.067Z,3.50
2023-05-10T01:50:08.069Z,3.00
2023-05-10T01:51:08.078Z,3.40
2023-05-10T01:52:08.051Z,4.00
2023-05-10T01:53:08.033Z,8.30
2023-05-10T01:54:08.036Z,6.20
2023-05-10T01:55:08.054Z,3.50
2023-05-10T01:56:08.018Z,6.30
2023-05-10T01:57:08.004Z,3.20
2023-05-10T01:58:08.002Z,4.10
2023-05-10T01:59:07.994Z,4.60
2023-05-10T02:00:08.024Z,6.00
2023-05-10T02:01:08.025Z,6.60
2023-05-10T02:02:08.007Z,3.90
2023-05-10T02:03:08.043Z,6.20
2023-05-10T02:04:08.041Z,6.80
2023-05-10T02:05:07.991Z,8.50
2023-05-10T02:06:07.952Z,3.00
2023-05-10T02:07:07.938Z,3.40
2023-05-10T02:08:07.942Z,5.80
2023-05-10T02:09:07.974Z,3.40
2023-05-10T02:10:07.957Z,3.90
2023-05-10T02:11:07.925Z,2.50
2023-05-10T02:12:08.002Z,3.30
2023-05-10T02:13:07.979Z,6.00
2023-05-10T02:14:07.942Z,3.60
2023-05-10T02:15:07.922Z,1.80
2023-05-10T02:16:07.905Z,2.00
2023-05-10T02:17:07.915Z,2.10
2023-05-10T02:18:07.994Z,1.30
2023-05-10T02:19:07.890Z,2.20
2023-05-10T02:20:07.850Z,1.40
2023-05-10T02:21:07.868Z,1.50
2023-05-10T02:22:07.837Z,1.00
2023-05-10T02:23:07.839Z,0.90
2023-05-10T02:24:07.815Z,3.50
2023-05-10T02:25:07.826Z,0.80
2023-05-10T02:26:07.841Z,0.50
2023-05-10T02:27:07.798Z,0.90
2023-05-10T02:28:07.830Z,0.30
2023-05-10T02:29:07.818Z,0.30
2023-05-10T02:30:07.781Z,4.20
2023-05-10T02:31:07.762Z,0.90
2023-05-10T02:32:07.895Z,0.60
2023-05-10T02:33:07.781Z,4.00
2023-05-10T02:34:07.760Z,1.10
2023-05-10T02:35:07.766Z,1.50
2023-05-10T02:36:07.737Z,3.90
2023-05-10T02:37:07.747Z,1.00
2023-05-10T02:38:07.733Z,7.20
2023-05-10T02:39:07.768Z,0.60
2023-05-10T02:40:07.702Z,1.00
2023-05-10T02:41:07.722Z,1.10
2023-05-10T02:42:07.734Z,0.60
2023-05-10T02:43:07.695Z,4.50
2023-05-10T02:44:07.700Z,4.20
2023-05-10T02:45:07.683Z,4.10
2023-05-10T02:46:07.774Z,7.00
2023-05-10T02:47:07.713Z,1.60
2023-05-10T02:48:07.718Z,1.60
2023-05-10T02:49:07.650Z,4.20
2023-05-10T02:50:07.663Z,8.70
2023-05-10T02:51:07.657Z,2.00
2023-05-10T02:52:07.631Z,3.40
2023-05-10T02:53:07.653Z,2.50
2023-05-10T02:54:07.629Z,0.90
2023-05-10T02:55:07.648Z,1.70
2023-05-10T02:56:07.706Z,0.80
2023-05-10T02:57:07.589Z,8.60
2023-05-10T02:58:07.576Z,1.60
2023-05-10T02:59:07.576Z,2.40
2023-05-10T03:00:07.607Z,3.90
2023-05-10T03:01:07.583Z,0.90
2023-05-10T03:02:07.552Z,4.60
2023-05-10T03:03:07.589Z,1.50
2023-05-10T03:04:07.564Z,4.90
2023-05-10T03:05:07.570Z,1.50
2023-05-10T03:06:07.510Z,11.20
2023-05-10T03:07:07.507Z,0.60
2023-05-10T03:08:07.566Z,3.50
2023-05-10T03:09:07.515Z,1.10
2023-05-10T03:10:07.490Z,1.50
2023-05-10T03:11:07.532Z,0.40
2023-05-10T03:12:07.469Z,0.50
2023-05-10T03:13:07.539Z,4.20
2023-05-10T03:14:07.494Z,1.50
2023-05-10T03:15:07.495Z,0.30
2023-05-10T03:16:07.540Z,1.50
2023-05-10T03:17:07.461Z,0.70
2023-05-10T03:18:07.526Z,1.90
2023-05-10T03:19:07.456Z,4.40
2023-05-10T03:20:07.454Z,0.40
2023-05-10T03:21:07.416Z,0.60
2023-05-10T03:22:07.415Z,3.20
2023-05-10T03:23:07.429Z,1.30
2023-05-10T03:24:07.432Z,6.70
2023-05-10T03:25:07.384Z,0.20
2023-05-10T03:26:07.385Z,3.10
2023-05-10T03:27:07.366Z,4.00
2023-05-10T03:28:07.375Z,1.90
2023-05-10T03:29:07.371Z,0.90
2023-05-10T03:30:07.358Z,2.00
2023-05-10T03:31:07.381Z,0.60
2023-05-10T03:32:07.391Z,1.20
2023-05-10T03:33:07.463Z,0.40
2023-05-10T03:34:07.317Z,0.70
2023-05-10T03:35:07.323Z,1.00
2023-05-10T03:36:07.316Z,4.10
2023-05-10T03:37:07.309Z,1.40
2023-05-10T03:38:07.311Z,0.90
2023-05-10T03:39:07.297Z,0.90
2023-05-10T03:40:07.273Z,0.50
2023-05-10T03:41:07.259Z,1.50
2023-05-10T03:42:07.272Z,1.10
2023-05-10T03:43:07.254Z,0.70
2023-05-10T03:44:07.244Z,0.20
2023-05-10T03:45:07.243Z,0.90
2023-05-10T03:46:07.282Z,1.20
2023-05-10T03:47:07.335Z,2.30
2023-05-10T03:48:07.272Z,1.50
2023-05-10T03:49:07.241Z,2.00
2023-05-10T03:50:07.206Z,1.20
2023-05-10T03:51:07.235Z,0.30
2023-05-10T03:52:07.245Z,4.30
2023-05-10T03:53:07.185Z,0.60
2023-05-10T03:54:07.202Z,0.70
2023-05-10T03:55:07.195Z,0.90
2023-05-10T03:56:07.199Z,0.40
2023-05-10T03:57:07.161Z,6.50
2023-05-10T03:58:07.174Z,1.40
2023-05-10T03:59:07.156Z,1.30
2023-05-10T04:00:07.137Z,0.50
2023-05-10T04:01:07.166Z,1.00
2023-05-10T04:02:07.228Z,0.40
2023-05-10T04:03:07.218Z,1.00
2023-05-10T04:04:07.143Z,2.50
2023-05-10T04:05:07.141Z,0.80
2023-05-10T04:06:07.169Z,0.70
2023-05-10T04:07:07.104Z,2.70
2023-05-10T04:08:07.169Z,1.40
2023-05-10T04:09:07.091Z,0.80
2023-05-10T04:10:07.129Z,0.80
2023-05-10T04:11:07.069Z,1.40
2023-05-10T04:12:08.958Z,0.40
2023-05-10T04:13:07.065Z,3.30
2023-05-10T04:14:07.058Z,0.50
2023-05-10T04:15:07.080Z,0.90
2023-05-10T04:16:07.070Z,1.10
2023-05-10T04:17:07.114Z,4.00
2023-05-10T04:18:08.681Z,1.20
2023-05-10T04:19:07.064Z,4.10
2023-05-10T04:20:07.033Z,2.50
2023-05-10T04:21:06.996Z,0.70
2023-05-10T04:22:07.024Z,1.60
2023-05-10T04:23:06.981Z,4.00
2023-05-10T04:24:07.011Z,6.10
2023-05-10T04:25:06.995Z,5.30
2023-05-10T04:26:06.960Z,1.40
2023-05-10T04:27:06.966Z,4.70
2023-05-10T04:28:06.975Z,0.60
2023-05-10T04:29:07.957Z,5.50
2023-05-10T04:30:06.923Z,0.70
2023-05-10T04:31:06.994Z,0.80
2023-05-10T04:32:07.002Z,3.70
2023-05-10T04:33:08.017Z,1.50
2023-05-10T04:34:07.797Z,1.40
2023-05-10T04:35:07.787Z,0.70
2023-05-10T04:36:07.057Z,2.20
2023-05-10T04:37:07.832Z,5.00
2023-05-10T04:38:07.794Z,1.30
2023-05-10T04:39:07.775Z,1.50
2023-05-10T04:40:07.780Z,1.60
2023-05-10T04:41:08.295Z,1.60
2023-05-10T04:42:06.841Z,1.40
2023-05-10T04:43:06.905Z,1.20
2023-05-10T04:44:06.832Z,1.10
2023-05-10T04:45:07.080Z,1.50
2023-05-10T04:46:07.815Z,1.10
2023-05-10T04:47:06.988Z,2.10
2023-05-10T04:48:07.832Z,0.80
2023-05-10T04:49:07.785Z,1.90
2023-05-10T04:50:07.784Z,1.90
2023-05-10T04:51:08.282Z,2.00
2023-05-10T04:52:07.778Z,0.70
2023-05-10T04:53:06.814Z,5.00
2023-05-10T04:54:06.997Z,2.90
2023-05-10T04:55:08.110Z,2.40
2023-05-10T04:56:06.891Z,5.30
2023-05-10T04:57:07.716Z,1.20
2023-05-10T04:58:07.112Z,2.00
2023-05-10T04:59:06.983Z,1.00
2023-05-10T05:00:06.820Z,1.30
2023-05-10T05:01:06.828Z,1.20
2023-05-10T05:02:06.835Z,1.90
2023-05-10T05:03:06.974Z,2.10
2023-05-10T05:04:06.697Z,1.40
2023-05-10T05:05:07.894Z,1.20
2023-05-10T05:06:06.729Z,5.00
2023-05-10T05:07:06.674Z,1.50
2023-05-10T05:08:06.676Z,1.30
2023-05-10T05:09:06.688Z,1.10
2023-05-10T05:10:06.655Z,4.70
2023-05-10T05:11:06.682Z,2.50
2023-05-10T05:12:06.663Z,0.70
2023-05-10T05:13:06.732Z,0.60
2023-05-10T05:14:06.643Z,1.60
2023-05-10T05:15:09.678Z,3.80
2023-05-10T05:16:08.319Z,1.50
2023-05-10T05:17:06.618Z,1.50
2023-05-10T05:18:07.225Z,3.10
2023-05-10T05:19:06.617Z,1.00
2023-05-10T05:20:06.615Z,1.60
2023-05-10T05:21:07.998Z,1.30
2023-05-10T05:22:06.651Z,1.60
2023-05-10T05:23:07.291Z,1.10
2023-05-10T05:24:07.303Z,1.20
2023-05-10T05:25:06.629Z,4.30
2023-05-10T05:26:07.280Z,1.20
2023-05-10T05:27:07.323Z,1.20
2023-05-10T05:28:07.304Z,3.20
2023-05-10T05:29:07.287Z,1.40
2023-05-10T05:30:07.783Z,1.40
2023-05-10T05:31:07.355Z,0.90
2023-05-10T05:32:07.335Z,5.10
2023-05-10T05:33:07.342Z,1.70
2023-05-10T05:34:06.515Z,0.60
2023-05-10T05:35:06.509Z,0.50
2023-05-10T05:36:07.250Z,1.90
2023-05-10T05:37:06.640Z,1.00
2023-05-10T05:38:06.470Z,1.20
2023-05-10T05:39:06.492Z,1.50
2023-05-10T05:40:06.455Z,0.90
2023-05-10T05:41:06.456Z,0.60
2023-05-10T05:42:06.446Z,4.40
2023-05-10T05:43:06.455Z,1.40
2023-05-10T05:44:06.447Z,0.90
2023-05-10T05:45:07.282Z,1.70
2023-05-10T05:46:06.502Z,2.40
2023-05-10T05:47:06.425Z,1.50
2023-05-10T05:48:06.468Z,1.60
2023-05-10T05:49:06.401Z,2.40
2023-05-10T05:50:07.280Z,3.00
2023-05-10T05:51:07.538Z,1.40
2023-05-10T05:52:07.398Z,4.50
2023-05-10T05:53:07.321Z,1.50
2023-05-10T05:54:06.367Z,1.90
2023-05-10T05:55:06.386Z,1.20
2023-05-10T05:56:07.450Z,4.70
2023-05-10T05:57:06.369Z,3.40
2023-05-10T05:58:06.349Z,1.10
2023-05-10T05:59:06.412Z,5.00
2023-05-10T06:00:06.331Z,0.60
2023-05-10T06:01:06.319Z,0.40
2023-05-10T06:02:06.536Z,1.00
2023-05-10T06:03:06.379Z,1.20
2023-05-10T06:04:06.356Z,3.40
2023-05-10T06:05:06.277Z,2.20
2023-05-10T06:06:06.304Z,2.20
2023-05-10T06:07:06.288Z,1.40
2023-05-10T06:08:06.259Z,1.80
2023-05-10T06:09:06.267Z,2.00
2023-05-10T06:10:06.240Z,0.80
2023-05-10T06:11:06.254Z,5.30
2023-05-10T06:12:06.267Z,1.40
2023-05-10T06:13:06.270Z,3.80
2023-05-10T06:14:06.212Z,1.70
2023-05-10T06:15:06.221Z,5.90
2023-05-10T06:16:06.222Z,3.70
2023-05-10T06:17:06.294Z,2.30
2023-05-10T06:18:06.290Z,0.60
2023-05-10T06:19:06.187Z,0.80
2023-05-10T06:20:06.178Z,3.50
2023-05-10T06:21:06.205Z,1.90
2023-05-10T06:22:06.172Z,1.20
2023-05-10T06:23:06.160Z,1.20
2023-05-10T06:24:06.170Z,1.50
2023-05-10T06:25:06.196Z,0.60
2023-05-10T06:26:06.162Z,0.90
2023-05-10T06:27:06.161Z,2.20
2023-05-10T06:28:06.144Z,0.80
2023-05-10T06:29:06.121Z,1.20
2023-05-10T06:30:12.782Z,0.70
2023-05-10T06:31:08.136Z,1.70
2023-05-10T06:32:06.105Z,1.10
2023-05-10T06:33:06.162Z,0.50
2023-05-10T06:34:06.069Z,1.40
2023-05-10T06:35:06.154Z,1.70
2023-05-10T06:36:06.086Z,4.50
2023-05-10T06:37:06.056Z,2.20
2023-05-10T06:38:06.060Z,2.30
2023-05-10T06:39:06.113Z,2.50
2023-05-10T06:40:06.066Z,1.70
2023-05-10T06:41:06.034Z,1.90
2023-05-10T06:42:06.034Z,2.60
2023-05-10T06:43:06.018Z,1.40
2023-05-10T06:44:06.051Z,1.50
2023-05-10T06:45:06.018Z,3.80
2023-05-10T06:46:06.058Z,1.10
2023-05-10T06:47:06.052Z,1.80
2023-05-10T06:48:06.056Z,7.00
2023-05-10T06:49:05.995Z,3.00
2023-05-10T06:50:05.991Z,1.90
2023-05-10T06:51:06.018Z,2.20
2023-05-10T06:52:05.967Z,1.60
2023-05-10T06:53:05.989Z,4.20
2023-05-10T06:54:05.998Z,1.20
2023-05-10T06:55:06.050Z,3.10
2023-05-10T06:56:05.959Z,1.60
2023-05-10T06:57:16.068Z,4.00
2023-05-10T06:58:07.937Z,4.80
2023-05-10T06:59:05.972Z,1.00
2023-05-10T07:00:06.059Z,7.40
2023-05-10T07:01:05.928Z,1.40
2023-05-10T07:02:05.941Z,1.00
2023-05-10T07:03:06.238Z,5.00
2023-05-10T07:04:05.908Z,1.30
2023-05-10T07:05:05.886Z,3.00
2023-05-10T07:06:05.865Z,1.30
2023-05-10T07:07:05.861Z,3.70
2023-05-10T07:08:05.877Z,0.90
2023-05-10T07:09:05.862Z,1.70
2023-05-10T07:10:05.843Z,1.00
2023-05-10T07:11:05.827Z,2.20
2023-05-10T07:12:06.837Z,1.50
2023-05-10T07:13:05.911Z,2.20
2023-05-10T07:14:05.810Z,1.60
2023-05-10T07:15:05.798Z,1.90
2023-05-10T07:16:05.830Z,1.60
2023-05-10T07:17:05.825Z,3.70
2023-05-10T07:18:05.923Z,2.50
2023-05-10T07:19:05.774Z,5.80
2023-05-10T07:20:05.758Z,5.40
2023-05-10T07:21:05.762Z,4.00
2023-05-10T07:22:05.797Z,9.80
2023-05-10T07:23:05.741Z,6.00
2023-05-10T07:24:05.732Z,1.90
2023-05-10T07:25:05.744Z,5.30
2023-05-10T07:26:05.744Z,3.50
2023-05-10T07:27:05.759Z,1.30
2023-05-10T07:28:05.717Z,2.10
2023-05-10T07:29:05.686Z,1.40
2023-05-10T07:30:06.694Z,2.20
2023-05-10T07:31:05.769Z,1.50
2023-05-10T07:32:05.712Z,2.30
2023-05-10T07:33:05.728Z,1.70
2023-05-10T07:34:05.710Z,7.40
2023-05-10T07:35:05.655Z,5.10
2023-05-10T07:36:05.669Z,2.50
2023-05-10T07:37:05.656Z,1.00
2023-05-10T07:38:05.637Z,2.40
2023-05-10T07:39:05.633Z,1.60
2023-05-10T07:40:05.752Z,1.40
2023-05-10T07:41:05.635Z,2.00
2023-05-10T07:42:05.651Z,4.70
2023-05-10T07:43:05.601Z,0.90
2023-05-10T07:44:05.586Z,2.50
2023-05-10T07:45:05.600Z,6.70
2023-05-10T07:46:05.610Z,2.10
2023-05-10T07:47:05.566Z,10.60
2023-05-10T07:48:05.624Z,1.70
2023-05-10T07:49:05.577Z,2.30
2023-05-10T07:50:05.581Z,0.60
2023-05-10T07:51:05.600Z,2.20
2023-05-10T07:52:05.544Z,1.40
2023-05-10T07:53:05.533Z,1.70
2023-05-10T07:54:05.553Z,1.20
2023-05-10T07:55:05.533Z,1.80
2023-05-10T07:56:05.514Z,1.10
2023-05-10T07:57:05.502Z,1.90
2023-05-10T07:58:05.560Z,2.00
2023-05-10T07:59:05.499Z,1.70
2023-05-10T08:00:05.491Z,4.20
2023-05-10T08:01:05.481Z,4.00
2023-05-10T08:02:05.480Z,1.50
2023-05-10T08:03:05.525Z,2.30
2023-05-10T08:04:05.572Z,3.60
2023-05-10T08:05:05.437Z,0.80
2023-05-10T08:06:05.510Z,1.90
2023-05-10T08:07:05.421Z,0.90
2023-05-10T08:08:05.829Z,1.80
2023-05-10T08:09:05.431Z,7.40
2023-05-10T08:10:05.396Z,1.10
2023-05-10T08:11:05.411Z,1.30
2023-05-10T08:12:05.390Z,1.30
2023-05-10T08:13:05.415Z,1.60
2023-05-10T08:14:06.256Z,3.70
2023-05-10T08:15:05.353Z,3.80
2023-05-10T08:16:05.388Z,1.40
2023-05-10T08:17:05.457Z,1.30
2023-05-10T08:18:05.418Z,0.70
2023-05-10T08:19:05.438Z,1.50
2023-05-10T08:20:05.321Z,1.30
2023-05-10T08:21:05.314Z,0.60
2023-05-10T08:22:05.325Z,3.30
2023-05-10T08:23:05.322Z,0.70
2023-05-10T08:24:05.300Z,1.70
2023-05-10T08:25:05.330Z,5.40
2023-05-10T08:26:05.289Z,1.50
2023-05-10T08:27:05.295Z,1.30
2023-05-10T08:28:05.260Z,2.00
2023-05-10T08:29:05.271Z,4.50
2023-05-10T08:30:05.257Z,6.10
2023-05-10T08:31:05.268Z,2.00
2023-05-10T08:32:05.261Z,4.20
2023-05-10T08:33:05.317Z,2.30
2023-05-10T08:34:05.229Z,0.70
2023-05-10T08:35:05.237Z,1.80
2023-05-10T08:36:05.398Z,5.80
2023-05-10T08:37:05.233Z,2.40
2023-05-10T08:38:05.199Z,1.10
2023-05-10T08:39:07.727Z,4.20
2023-05-10T08:40:06.177Z,4.00
2023-05-10T08:41:05.462Z,4.10
2023-05-10T08:42:05.180Z,0.90
2023-05-10T08:43:05.153Z,1.70
2023-05-10T08:44:05.166Z,4.10
2023-05-10T08:45:05.145Z,1.50
2023-05-10T08:46:05.410Z,1.20
2023-05-10T08:47:05.202Z,1.50
2023-05-10T08:48:05.157Z,1.10
2023-05-10T08:49:05.114Z,4.90
2023-05-10T08:50:05.142Z,0.90
2023-05-10T08:51:05.149Z,1.10
2023-05-10T08:52:05.128Z,1.10
2023-05-10T08:53:05.069Z,5.70
2023-05-10T08:54:05.139Z,0.90
2023-05-10T08:55:05.083Z,1.80
2023-05-10T08:56:05.066Z,1.60
2023-05-10T08:57:05.054Z,1.70
2023-05-10T08:58:05.044Z,2.50
2023-05-10T08:59:05.039Z,3.70
2023-05-10T09:00:05.050Z,1.00
2023-05-10T09:01:05.080Z,1.00
2023-05-10T09:02:05.022Z,3.50
2023-05-10T09:03:05.039Z,0.60
2023-05-10T09:04:05.035Z,1.00
2023-05-10T09:05:05.056Z,1.30
2023-05-10T09:06:04.995Z,2.60
2023-05-10T09:07:04.974Z,2.20
2023-05-10T09:08:04.992Z,2.00
2023-05-10T09:09:05.265Z,1.70
2023-05-10T09:10:04.968Z,1.60
2023-05-10T09:11:04.948Z,4.30
2023-05-10T09:12:04.945Z,5.20
2023-05-10T09:13:04.942Z,0.80
2023-05-10T09:14:04.948Z,0.70
2023-05-10T09:15:04.980Z,1.70
2023-05-10T09:16:17.451Z,0.90
2023-05-10T09:17:06.949Z,3.30
2023-05-10T09:18:04.939Z,2.40
2023-05-10T09:19:04.989Z,0.90
2023-05-10T09:20:04.901Z,1.90
2023-05-10T09:21:04.919Z,5.10
2023-05-10T09:22:04.896Z,1.70
2023-05-10T09:23:04.893Z,0.80
2023-05-10T09:24:04.885Z,4.40
2023-05-10T09:25:04.863Z,1.60
2023-05-10T09:26:04.858Z,1.10
2023-05-10T09:27:04.850Z,2.10
2023-05-10T09:28:05.865Z,1.30
2023-05-10T09:29:04.838Z,1.30
2023-05-10T09:30:04.854Z,1.20
2023-05-10T09:31:04.837Z,1.10
2023-05-10T09:32:04.829Z,1.30
2023-05-10T09:33:04.896Z,4.80
2023-05-10T09:34:04.796Z,2.00
2023-05-10T09:35:04.774Z,0.70
2023-05-10T09:36:05.778Z,1.10
2023-05-10T09:37:04.777Z,3.50
2023-05-10T09:38:04.761Z,0.90
2023-05-10T09:39:04.759Z,5.20
2023-05-10T09:40:04.745Z,5.20
2023-05-10T09:41:04.735Z,3.70
2023-05-10T09:42:04.802Z,2.40
2023-05-10T09:43:04.724Z,4.00
2023-05-10T09:44:04.712Z,1.30
2023-05-10T09:45:04.752Z,1.40
2023-05-10T09:46:04.775Z,2.00
2023-05-10T09:47:04.712Z,1.20
2023-05-10T09:48:04.767Z,1.10
2023-05-10T09:49:04.689Z,1.20
2023-05-10T09:50:04.687Z,3.80
2023-05-10T09:51:04.695Z,3.00
2023-05-10T09:52:04.703Z,4.90
2023-05-10T09:53:04.866Z,3.00
2023-05-10T09:54:04.652Z,0.90
2023-05-10T09:55:04.715Z,5.20
2023-05-10T09:56:04.659Z,1.90
2023-05-10T09:57:04.639Z,0.90
2023-05-10T09:58:04.616Z,5.70
2023-05-10T09:59:04.634Z,1.20
2023-05-10T10:00:04.650Z,0.90
2023-05-10T10:01:04.703Z,3.60
2023-05-10T10:02:04.659Z,1.70
2023-05-10T10:03:04.635Z,0.60
2023-05-10T10:04:04.577Z,8.30
2023-05-10T10:05:04.687Z,2.30
2023-05-10T10:06:04.560Z,0.70
2023-05-10T10:07:04.884Z,1.30
2023-05-10T10:08:04.546Z,2.60
2023-05-10T10:09:04.545Z,1.90
2023-05-10T10:10:04.582Z,1.50
2023-05-10T10:11:04.551Z,1.10
2023-05-10T10:12:04.524Z,2.10
2023-05-10T10:13:04.611Z,1.30
2023-05-10T10:14:04.528Z,1.10
2023-05-10T10:15:04.519Z,0.80
2023-05-10T10:16:04.564Z,0.70
2023-05-10T10:17:08.322Z,1.80
2023-05-10T10:18:05.598Z,1.70
2023-05-10T10:19:04.524Z,2.20
2023-05-10T10:20:04.542Z,1.00
2023-05-10T10:21:04.471Z,1.60
2023-05-10T10:22:04.493Z,1.10
2023-05-10T10:23:04.480Z,1.90
2023-05-10T10:24:04.464Z,3.70
2023-05-10T10:25:04.423Z,3.70
2023-05-10T10:26:05.422Z,4.20
2023-05-10T10:27:04.453Z,1.80
2023-05-10T10:28:04.457Z,2.00
2023-05-10T10:29:04.423Z,1.70
2023-05-10T10:30:04.412Z,2.80
2023-05-10T10:31:04.419Z,7.50
2023-05-10T10:32:04.393Z,3.70
2023-05-10T10:33:07.938Z,17.00
2023-05-10T10:34:06.373Z,26.60
2023-05-10T10:35:04.359Z,11.10
2023-05-10T10:36:04.367Z,20.20
2023-05-10T10:37:04.377Z,21.00
2023-05-10T10:38:04.380Z,12.20
2023-05-10T10:39:04.412Z,29.90
2023-05-10T10:40:04.329Z,6.70
2023-05-10T10:41:04.366Z,12.10
2023-05-10T10:42:04.368Z,7.00
2023-05-10T10:43:04.346Z,4.90
2023-05-10T10:44:04.299Z,4.40
2023-05-10T10:45:04.320Z,8.90
2023-05-10T10:46:04.291Z,6.10
2023-05-10T10:47:04.323Z,5.70
2023-05-10T10:48:04.287Z,5.90
2023-05-10T10:49:04.253Z,6.70
2023-05-10T10:50:04.273Z,12.90
2023-05-10T10:51:04.278Z,3.70
2023-05-10T10:52:04.273Z,6.10
2023-05-10T10:53:04.325Z,9.50
2023-05-10T10:54:04.251Z,4.40
2023-05-10T10:55:04.218Z,6.20
2023-05-10T10:56:04.235Z,4.30
2023-05-10T10:57:04.214Z,6.50
2023-05-10T10:58:04.189Z,6.90
2023-05-10T10:59:04.193Z,4.10
2023-05-10T11:00:04.177Z,3.00
2023-05-10T11:01:04.199Z,5.90
2023-05-10T11:02:04.156Z,3.90
2023-05-10T11:03:04.201Z,2.60
2023-05-10T11:04:04.173Z,5.00
2023-05-10T11:05:05.216Z,16.80
2023-05-10T11:06:05.155Z,10.80
2023-05-10T11:07:04.113Z,3.00
2023-05-10T11:08:04.126Z,2.50
2023-05-10T11:09:04.113Z,3.60
2023-05-10T11:10:04.128Z,2.60
2023-05-10T11:11:04.125Z,12.50
2023-05-10T11:12:04.084Z,4.90
2023-05-10T11:13:04.083Z,3.00
2023-05-10T11:14:04.091Z,3.70
2023-05-10T11:15:04.081Z,8.10
2023-05-10T11:16:04.067Z,4.70
2023-05-10T11:17:04.101Z,4.60
2023-05-10T11:18:04.054Z,2.70
2023-05-10T11:19:04.240Z,5.40
2023-05-10T11:20:04.064Z,2.80
2023-05-10T11:21:04.068Z,2.60
2023-05-10T11:22:04.026Z,4.20
2023-05-10T11:23:04.013Z,4.60
2023-05-10T11:24:04.037Z,3.70
2023-05-10T11:25:03.995Z,2.20
2023-05-10T11:26:03.999Z,2.20
2023-05-10T11:27:03.978Z,5.40
2023-05-10T11:28:05.244Z,2.50
2023-05-10T11:29:03.998Z,4.00
2023-05-10T11:30:05.067Z,4.80
2023-05-10T11:31:03.974Z,7.10
2023-05-10T11:32:03.939Z,3.30
2023-05-10T11:33:04.008Z,7.90
2023-05-10T11:34:04.041Z,16.10
2023-05-10T11:35:03.934Z,22.70
2023-05-10T11:36:04.941Z,6.20
2023-05-10T11:37:03.925Z,7.50
2023-05-10T11:38:03.970Z,17.80
2023-05-10T11:39:03.921Z,11.90
2023-05-10T11:40:03.980Z,7.20
2023-05-10T11:41:03.976Z,9.10
2023-05-10T11:42:03.910Z,14.70
2023-05-10T11:43:03.901Z,4.00
2023-05-10T11:44:03.878Z,4.40
2023-05-10T11:45:03.882Z,3.90
2023-05-10T11:46:03.929Z,6.40
2023-05-10T11:47:03.884Z,7.20
2023-05-10T11:48:03.967Z,5.90
2023-05-10T11:49:03.908Z,8.40
2023-05-10T11:50:03.830Z,7.90
2023-05-10T11:51:03.833Z,4.50
2023-05-10T11:52:03.837Z,4.20
2023-05-10T11:53:03.816Z,3.80
2023-05-10T11:54:03.812Z,4.20
2023-05-10T11:55:03.807Z,3.40
2023-05-10T11:56:03.807Z,10.00
2023-05-10T11:57:03.906Z,3.00
2023-05-10T11:58:03.800Z,5.40
2023-05-10T11:59:03.763Z,14.20
2023-05-10T12:00:03.776Z,4.80
2023-05-10T12:01:03.777Z,3.10
2023-05-10T12:02:03.776Z,4.30
2023-05-10T12:03:03.930Z,6.30
2023-05-10T12:04:03.844Z,3.90
2023-05-10T12:05:03.931Z,2.70
2023-05-10T12:06:03.751Z,6.00
2023-05-10T12:07:03.734Z,2.30
2023-05-10T12:08:03.713Z,4.30
2023-05-10T12:09:03.699Z,2.60
2023-05-10T12:10:03.710Z,6.10
2023-05-10T12:11:03.703Z,5.50
2023-05-10T12:12:03.690Z,2.20
2023-05-10T12:13:03.689Z,3.00
2023-05-10T12:14:03.673Z,2.20
2023-05-10T12:15:03.679Z,2.10
2023-05-10T12:16:03.722Z,2.60
2023-05-10T12:17:03.675Z,2.30
2023-05-10T12:18:03.737Z,2.00
2023-05-10T12:19:03.729Z,4.80
2023-05-10T12:20:03.655Z,5.90
2023-05-10T12:21:03.626Z,1.50
2023-05-10T12:22:04.621Z,3.10
2023-05-10T12:23:03.608Z,5.10
2023-05-10T12:24:03.609Z,1.60
2023-05-10T12:25:03.625Z,1.00
2023-05-10T12:26:03.593Z,1.40
2023-05-10T12:27:03.586Z,1.00
2023-05-10T12:28:03.595Z,5.40
2023-05-10T12:29:03.598Z,4.10
2023-05-10T12:30:03.581Z,2.30
2023-05-10T12:31:03.568Z,3.70
2023-05-10T12:32:03.662Z,1.40
2023-05-10T12:33:03.586Z,2.40
2023-05-10T12:34:03.570Z,2.00
2023-05-10T12:35:03.685Z,1.00
2023-05-10T12:36:03.518Z,2.50
2023-05-10T12:37:03.531Z,2.10
2023-05-10T12:38:03.510Z,1.70
2023-05-10T12:39:03.530Z,0.70
2023-05-10T12:40:03.492Z,1.40
2023-05-10T12:41:03.568Z,1.20
2023-05-10T12:42:03.486Z,3.20
2023-05-10T12:43:03.571Z,0.90
2023-05-10T12:44:03.504Z,0.70
2023-05-10T12:45:03.461Z,1.20
2023-05-10T12:46:03.474Z,2.00
2023-05-10T12:47:03.453Z,4.40
2023-05-10T12:48:03.497Z,1.30
2023-05-10T12:49:09.046Z,2.30
2023-05-10T12:50:05.428Z,1.70
2023-05-10T12:51:03.420Z,4.00
2023-05-10T12:52:03.416Z,0.70
2023-05-10T12:53:03.430Z,1.80
2023-05-10T12:54:03.390Z,1.00
2023-05-10T12:55:03.393Z,1.00
2023-05-10T12:56:03.379Z,1.30
2023-05-10T12:57:03.408Z,0.80
2023-05-10T12:58:03.577Z,2.30
2023-05-10T12:59:06.158Z,1.50
2023-05-10T13:00:03.381Z,4.40
2023-05-10T13:01:03.541Z,4.40
2023-05-10T13:02:03.388Z,2.30
2023-05-10T13:03:03.397Z,0.80
2023-05-10T13:04:03.351Z,6.70
2023-05-10T13:05:03.384Z,4.80
2023-05-10T13:06:03.321Z,2.00
2023-05-10T13:07:04.329Z,2.30
2023-05-10T13:08:03.300Z,1.70
2023-05-10T13:09:03.282Z,1.50
2023-05-10T13:10:03.289Z,1.40
2023-05-10T13:11:03.293Z,4.90
2023-05-10T13:12:03.283Z,4.50
2023-05-10T13:13:03.267Z,1.80
2023-05-10T13:14:03.253Z,2.40
2023-05-10T13:15:03.239Z,2.30
2023-05-10T13:16:03.250Z,3.00